Time;durP1;ratioP1;P1;durP2;ratioP2;P2;SDS_P1;SDS_P2;PMS_P1;PMS_P2;Temp;Humidity;BMP_temperature;BMP_pressure;BME280_temperature;BME280_humidity;BME280_pressure;Samples;Min_cycle;Max_cycle;Signal;HPM_P1;HPM_P2
2022/10/18 00:01:13;;;;;;;62.45;28.60;;;;;;;12.46;100.00;102504.63;5039600;27;20054;-81
2022/10/18 00:03:42;;;;;;;58.53;26.63;;;;;;;12.47;100.00;102503.75;5090064;28;20160;-81
2022/10/18 00:06:11;;;;;;;54.72;26.00;;;;;;;12.46;100.00;102499.34;5085487;27;20032;-80
2022/10/18 00:08:39;;;;;;;55.40;24.65;;;;;;;12.46;100.00;102501.09;5082804;27;20624;-82
2022/10/18 00:11:08;;;;;;;59.95;25.15;;;;;;;12.47;100.00;102490.53;5071855;28;20054;-80
2022/10/18 00:13:37;;;;;;;51.30;24.08;;;;;;;12.47;100.00;102493.19;5086562;27;20629;-80
2022/10/18 00:16:15;;;;;;;52.22;24.33;;;;;;;12.48;100.00;102491.44;5067608;28;20411;-80
2022/10/18 00:18:44;;;;;;;52.97;23.80;;;;;;;12.48;100.00;102487.03;5094676;28;20070;-80
2022/10/18 00:21:16;;;;;;;48.60;21.80;;;;;;;12.49;100.00;102482.63;5107835;27;20050;-83
2022/10/18 00:23:45;;;;;;;41.90;21.67;;;;;;;12.49;100.00;102495.88;5107413;27;20044;-82
2022/10/18 00:26:16;;;;;;;58.90;23.20;;;;;;;12.50;100.00;102495.03;5103244;28;20043;-81
2022/10/18 00:28:48;;;;;;;48.72;21.95;;;;;;;12.50;100.00;102499.44;5076163;28;20059;-81
2022/10/18 00:31:21;;;;;;;43.38;22.10;;;;;;;12.49;100.00;102503.78;5107481;27;20050;-80
2022/10/18 00:33:52;;;;;;;56.42;24.23;;;;;;;12.48;100.00;102510.84;5081336;28;20338;-80
2022/10/18 00:36:23;;;;;;;59.05;23.30;;;;;;;12.45;100.00;102510.75;5104578;28;20048;-81
2022/10/18 00:38:51;;;;;;;44.22;20.40;;;;;;;12.43;100.00;102508.97;5075606;28;20078;-80
2022/10/18 00:41:23;;;;;;;51.92;22.45;;;;;;;12.40;100.00;102508.88;5102453;28;21020;-80
2022/10/18 00:44:02;;;;;;;53.17;22.42;;;;;;;12.37;100.00;102514.13;5098474;28;20538;-81
2022/10/18 00:46:36;;;;;;;45.90;22.58;;;;;;;12.34;100.00;102514.91;5102165;28;20074;-81
2022/10/18 00:49:11;;;;;;;51.95;23.52;;;;;;;12.32;100.00;102519.28;5092339;27;20511;-81
2022/10/18 00:51:52;;;;;;;114.82;30.83;;;;;;;12.29;100.00;102525.41;5077456;28;20167;-81
2022/10/18 00:54:21;;;;;;;187.07;34.83;;;;;;;12.27;100.00;102529.75;5093093;28;20019;-82
2022/10/18 00:56:50;;;;;;;240.27;31.77;;;;;;;12.25;100.00;102525.31;5092556;28;20043;-81
2022/10/18 00:59:19;;;;;;;251.20;33.75;;;;;;;12.22;100.00;102538.44;5101926;28;20031;-82
2022/10/18 01:01:48;;;;;;;170.13;27.90;;;;;;;12.20;100.00;102529.59;5087608;28;20221;-81
2022/10/18 01:04:22;;;;;;;137.15;28.35;;;;;;;12.19;100.00;102533.06;5065490;28;20042;-80
2022/10/18 01:07:16;;;;;;;163.70;28.42;;;;;;;12.19;100.00;102533.06;5126938;27;20043;-80
2022/10/18 01:10:11;;;;;;;158.15;29.17;;;;;;;12.20;100.00;102534.88;5101996;27;24251;-80
2022/10/18 01:13:07;;;;;;;155.05;29.30;;;;;;;12.22;100.00;102538.44;5087423;28;20050;-80
2022/10/18 01:15:57;;;;;;;134.32;26.20;;;;;;;12.23;100.00;102542.84;5123523;27;20059;-81
2022/10/18 01:18:34;;;;;;;296.58;42.20;;;;;;;12.25;100.00;102546.47;5095335;27;20043;-80
2022/10/18 01:21:17;;;;;;;242.23;34.83;;;;;;;12.26;100.00;102537.66;5127862;27;20527;-81
2022/10/18 01:24:13;;;;;;;320.83;41.83;;;;;;;12.27;100.00;102529.75;5110023;27;20272;-81
2022/10/18 01:26:42;;;;;;;256.17;38.72;;;;;;;12.29;100.00;102520.13;5093356;28;20597;-81
2022/10/18 01:29:45;;;;;;;276.40;39.42;;;;;;;12.30;100.00;102513.06;5091301;28;20046;-81
2022/10/18 01:32:22;;;;;;;219.68;35.63;;;;;;;12.31;100.00;102512.22;5106576;28;20055;-82
2022/10/18 01:34:54;;;;;;;225.27;36.97;;;;;;;12.33;100.00;102513.16;5063892;27;20515;-81
2022/10/18 01:37:31;;;;;;;275.05;40.22;;;;;;;12.36;100.00;102517.59;5087170;28;20051;-81
2022/10/18 01:40:05;;;;;;;272.05;40.58;;;;;;;12.38;100.00;102522.09;5102618;28;20043;-81
2022/10/18 01:42:36;;;;;;;319.70;42.65;;;;;;;12.41;100.00;102510.69;5105707;28;20156;-81
2022/10/18 01:45:06;;;;;;;318.02;40.70;;;;;;;12.41;100.00;102516.84;5090267;28;20047;-81
2022/10/18 01:47:35;;;;;;;359.33;42.85;;;;;;;12.42;100.00;102523.94;5095377;28;20051;-80
2022/10/18 01:50:05;;;;;;;361.20;45.88;;;;;;;12.44;100.00;102526.63;5100650;28;20511;-80
2022/10/18 01:52:34;;;;;;;327.95;38.20;;;;;;;12.44;100.00;102514.28;5091487;27;20054;-81
2022/10/18 01:55:03;;;;;;;322.58;44.30;;;;;;;12.44;100.00;102521.34;5120599;27;20393;-81
2022/10/18 01:57:45;;;;;;;220.20;34.55;;;;;;;12.44;100.00;102522.22;5120864;27;20688;-81
2022/10/18 02:00:22;;;;;;;115.75;28.63;;;;;;;12.47;100.00;102524.03;5109124;28;20048;-80
2022/10/18 02:03:03;;;;;;;278.55;39.30;;;;;;;12.47;100.00;102529.31;5104660;28;20044;-82
2022/10/18 02:05:39;;;;;;;;;;;;;;;12.47;100.00;102522.25;5072751;27;21017;-80
2022/10/18 02:08:29;;;;;;;86.43;28.35;;;;;;;12.48;100.00;102521.41;5117197;27;19923;-80
2022/10/18 02:11:03;;;;;;;329.90;42.70;;;;;;;12.50;100.00;102520.56;5104740;27;20058;-80
2022/10/18 02:13:39;;;;;;;313.85;38.33;;;;;;;12.48;100.00;102521.41;5104483;28;20044;-83
2022/10/18 02:16:17;;;;;;;424.00;44.17;;;;;;;12.50;100.00;102517.94;5104739;28;20044;-79
2022/10/18 02:18:55;;;;;;;464.08;48.53;;;;;;;12.47;100.00;102524.91;5100781;27;20043;-80
2022/10/18 02:21:27;;;;;;;251.32;36.03;;;;;;;12.48;100.00;102523.19;5076664;27;20057;-81
2022/10/18 02:23:57;;;;;;;431.15;42.42;;;;;;;12.48;100.00;102528.47;5089276;28;20374;-80
2022/10/18 02:26:26;;;;;;;;;;;;;;;12.46;100.00;102528.44;5123172;27;20066;-81
2022/10/18 02:28:54;;;;;;;397.20;44.78;;;;;;;12.47;100.00;102542.53;5102940;27;20303;-80
2022/10/18 02:31:51;;;;;;;350.20;44.10;;;;;;;12.45;100.00;102537.19;5109227;27;20384;-81
2022/10/18 02:34:30;;;;;;;289.92;39.97;;;;;;;12.45;100.00;102534.56;5092071;27;20400;-81
2022/10/18 02:37:00;;;;;;;340.35;43.95;;;;;;;12.45;100.00;102533.69;5078099;27;20046;-80
2022/10/18 02:39:50;;;;;;;179.27;31.98;;;;;;;12.43;100.00;102530.09;5090065;27;20038;-81
2022/10/18 02:42:18;;;;;;;259.25;39.33;;;;;;;12.39;100.00;102529.16;5127510;27;20047;-81
2022/10/18 02:44:46;;;;;;;230.90;36.40;;;;;;;12.38;100.00;102530.03;5055941;28;20251;-80
2022/10/18 02:47:15;;;;;;;289.13;40.22;;;;;;;12.37;100.00;102527.34;5102709;27;20535;-83
2022/10/18 02:49:43;;;;;;;265.08;39.00;;;;;;;12.35;100.00;102534.34;5108031;27;20283;-80
2022/10/18 02:52:12;;;;;;;233.63;36.72;;;;;;;12.34;100.00;102533.44;5025082;28;20488;-80
2022/10/18 02:54:40;;;;;;;280.45;38.00;;;;;;;12.34;100.00;102536.06;5099451;27;20271;-80
2022/10/18 02:57:08;;;;;;;298.30;40.10;;;;;;;12.33;100.00;102541.34;5090022;28;20044;-80
2022/10/18 02:59:37;;;;;;;190.07;32.58;;;;;;;12.31;100.00;102538.66;5094194;27;20455;-81
2022/10/18 03:02:05;;;;;;;281.30;39.33;;;;;;;12.29;100.00;102543.91;5110356;27;20058;-81
2022/10/18 03:04:34;;;;;;;189.82;30.17;;;;;;;12.26;100.00;102541.19;5073543;27;20050;-81
2022/10/18 03:07:02;;;;;;;266.08;36.88;;;;;;;12.25;100.00;102536.78;5091153;27;20047;-81
2022/10/18 03:09:31;;;;;;;277.23;35.55;;;;;;;12.25;100.00;102541.16;5051573;27;20032;-80
2022/10/18 03:11:59;;;;;;;259.95;33.30;;;;;;;12.24;100.00;102540.25;5091960;28;20423;-82
2022/10/18 03:14:28;;;;;;;323.88;38.47;;;;;;;12.25;100.00;102538.53;5096466;27;20388;-80
2022/10/18 03:16:56;;;;;;;237.82;32.53;;;;;;;12.23;100.00;102543.78;5059718;28;20417;-80
2022/10/18 03:19:26;;;;;;;112.88;26.63;;;;;;;12.22;100.00;102539.31;5069976;28;20042;-81
2022/10/18 03:21:55;;;;;;;144.60;28.27;;;;;;;12.22;100.00;102549.00;5089029;28;20047;-80
2022/10/18 03:24:23;;;;;;;308.70;39.25;;;;;;;12.21;100.00;102544.56;5070539;27;20051;-81
2022/10/18 03:26:51;;;;;;;298.23;37.40;;;;;;;12.19;100.00;102539.28;5092729;27;20395;-81
2022/10/18 03:29:20;;;;;;;349.90;44.40;;;;;;;12.19;100.00;102548.94;5083163;28;20031;-81
2022/10/18 03:31:48;;;;;;;137.23;27.73;;;;;;;12.15;100.00;102549.72;5092782;28;20287;-81
2022/10/18 03:34:16;;;;;;;246.07;34.80;;;;;;;12.14;100.00;102542.66;5105497;28;20149;-82
2022/10/18 03:36:45;;;;;;;216.68;33.92;;;;;;;12.14;100.00;102548.84;5066842;27;20065;-81
2022/10/18 03:39:14;;;;;;;259.98;37.70;;;;;;;12.12;100.00;102539.06;5086172;27;20035;-81
2022/10/18 03:41:42;;;;;;;180.18;31.38;;;;;;;12.13;100.00;102549.69;5080640;28;20078;-80
2022/10/18 03:44:10;;;;;;;137.48;27.88;;;;;;;12.12;100.00;102547.91;5074132;27;20074;-80
2022/10/18 03:46:39;;;;;;;214.68;34.45;;;;;;;12.13;100.00;102540.88;5075494;28;20342;-81
2022/10/18 03:49:08;;;;;;;235.23;33.45;;;;;;;12.10;100.00;102544.34;5108126;27;20058;-81
2022/10/18 03:51:37;;;;;;;139.60;27.30;;;;;;;12.09;100.00;102551.34;5089904;27;20046;-81
2022/10/18 03:54:05;;;;;;;232.68;32.20;;;;;;;12.07;100.00;102542.50;5097122;27;20504;-81
2022/10/18 03:56:37;;;;;;;103.55;23.92;;;;;;;12.05;100.00;102536.28;5059007;27;20035;-82
2022/10/18 03:59:05;;;;;;;141.75;26.63;;;;;;;12.04;100.00;102547.72;5077120;27;20035;-81
2022/10/18 04:01:34;;;;;;;322.25;34.50;;;;;;;12.03;100.00;102551.22;5065203;27;20051;-81
2022/10/18 04:04:02;;;;;;;171.10;27.25;;;;;;;12.02;100.00;102553.81;5069052;28;20144;-81
2022/10/18 04:06:30;;;;;;;87.78;23.58;;;;;;;12.01;100.00;102555.56;5095388;28;20063;-81
2022/10/18 04:08:59;;;;;;;274.52;33.08;;;;;;;12.01;100.00;102559.97;5113335;27;20035;-81
2022/10/18 04:11:27;;;;;;;132.32;25.00;;;;;;;11.98;100.00;102552.84;5054237;28;20292;-81
2022/10/18 04:13:56;;;;;;;224.20;29.48;;;;;;;11.96;100.00;102551.91;5105151;27;20384;-81
2022/10/18 04:16:24;;;;;;;175.88;28.02;;;;;;;11.92;100.00;102542.13;5098029;28;20324;-81
2022/10/18 04:18:52;;;;;;;230.82;30.92;;;;;;;11.91;100.00;102550.94;5127616;27;20050;-81
2022/10/18 04:21:21;;;;;;;236.77;29.92;;;;;;;11.88;100.00;102548.16;5074262;27;20066;-80
2022/10/18 04:23:51;;;;;;;262.33;35.83;;;;;;;11.87;100.00;102549.91;5101034;28;20043;-80
2022/10/18 04:26:20;;;;;;;124.85;25.30;;;;;;;11.88;100.00;102556.09;5088819;27;20713;-81
2022/10/18 04:28:48;;;;;;;122.60;25.42;;;;;;;11.86;100.00;102545.47;5108342;27;20048;-81
2022/10/18 04:31:16;;;;;;;243.23;31.00;;;;;;;11.85;100.00;102553.34;5099391;27;20071;-80
2022/10/18 04:33:45;;;;;;;229.25;30.58;;;;;;;11.81;100.00;102559.41;5118454;27;20400;-81
2022/10/18 04:36:13;;;;;;;271.88;32.78;;;;;;;11.79;100.00;102564.66;5107613;27;20047;-80
2022/10/18 04:38:41;;;;;;;145.45;26.30;;;;;;;11.78;100.00;102559.38;5087543;28;20046;-80
2022/10/18 04:41:10;;;;;;;172.07;23.98;;;;;;;11.77;100.00;102552.28;5058854;27;20047;-80
2022/10/18 04:43:38;;;;;;;261.67;33.92;;;;;;;11.76;100.00;102566.31;5127400;27;20047;-80
2022/10/18 04:46:06;;;;;;;193.98;28.58;;;;;;;11.73;100.00;102563.63;5121811;27;20051;-80
2022/10/18 04:48:35;;;;;;;170.90;27.38;;;;;;;11.71;100.00;102564.47;5101067;28;20039;-79
2022/10/18 04:51:03;;;;;;;180.82;28.10;;;;;;;11.69;100.00;102558.25;5085916;28;20483;-80
2022/10/18 04:53:32;;;;;;;235.65;30.80;;;;;;;11.67;100.00;102561.72;5080123;27;20078;-80
2022/10/18 04:56:00;;;;;;;90.00;21.25;;;;;;;11.65;100.00;102569.59;5096121;27;20055;-79
2022/10/18 04:58:31;;;;;;;92.22;21.55;;;;;;;11.65;100.00;102569.59;5077953;28;20042;-80
2022/10/18 05:01:03;;;;;;;185.15;28.85;;;;;;;11.64;100.00;102565.16;5119432;27;20071;-80
2022/10/18 05:03:31;;;;;;;132.32;23.58;;;;;;;11.65;100.00;102569.59;5110185;27;20047;-80
2022/10/18 05:05:59;;;;;;;163.20;28.35;;;;;;;11.64;100.00;102565.16;5101849;28;20035;-82
2022/10/18 05:08:32;;;;;;;111.90;24.02;;;;;;;11.64;100.00;102558.97;5087219;28;20039;-82
2022/10/18 05:11:02;;;;;;;;;;;;;;;11.63;100.00;102557.22;5080698;27;20038;-80
2022/10/18 05:13:30;;;;;;;203.02;28.83;;;;;;;11.63;100.00;102557.22;5096534;28;20216;-80
2022/10/18 05:15:59;;;;;;;192.20;30.25;;;;;;;11.62;100.00;102558.94;5070220;28;20055;-81
2022/10/18 05:18:27;;;;;;;147.15;24.00;;;;;;;11.62;100.00;102560.69;5089470;28;20432;-81
2022/10/18 05:20:57;;;;;;;150.13;24.83;;;;;;;11.61;100.00;102557.16;5090306;28;20039;-81
2022/10/18 05:23:25;;;;;;;192.60;26.25;;;;;;;11.58;100.00;102559.72;5086300;28;20248;-81
2022/10/18 05:25:54;;;;;;;247.75;27.60;;;;;;;11.57;100.00;102567.59;5099732;28;20083;-81
2022/10/18 05:28:23;;;;;;;89.45;20.48;;;;;;;11.55;100.00;102564.03;5054962;28;20027;-81
2022/10/18 05:31:10;;;;;;;172.23;24.95;;;;;;;11.55;100.00;102553.47;5068970;27;20032;-80
2022/10/18 05:33:41;;;;;;;125.65;24.08;;;;;;;11.52;100.00;102551.66;5102173;27;20044;-81
2022/10/18 05:36:09;;;;;;;188.32;26.88;;;;;;;11.47;100.00;102551.53;5105186;27;20039;-81
2022/10/18 05:38:42;;;;;;;152.90;24.88;;;;;;;11.43;100.00;102560.19;5121263;27;20648;-81
2022/10/18 05:41:11;;;;;;;138.35;24.48;;;;;;;11.40;100.00;102567.13;5094439;28;20042;-81
2022/10/18 05:43:40;;;;;;;126.15;21.63;;;;;;;11.36;100.00;102575.81;5073726;28;20035;-81
2022/10/18 05:46:08;;;;;;;80.63;22.00;;;;;;;11.36;100.00;102571.47;5088433;28;20047;-82
2022/10/18 05:48:43;;;;;;;85.28;20.33;;;;;;;11.35;100.00;102561.75;5100538;27;20531;-80
2022/10/18 05:51:11;;;;;;;135.30;24.25;;;;;;;11.33;100.00;102560.81;5108419;28;20039;-81
2022/10/18 05:53:40;;;;;;;60.20;17.67;;;;;;;11.32;100.00;102570.50;5082074;28;20511;-81
2022/10/18 05:56:10;;;;;;;48.42;16.80;;;;;;;11.32;100.00;102570.50;5108274;27;20039;-81
2022/10/18 05:58:39;;;;;;;;;;;;;;;11.32;100.00;102572.22;5093636;27;20394;-81
2022/10/18 06:01:09;;;;;;;154.77;23.92;;;;;;;11.28;100.00;102573.88;5054898;27;20288;-81
2022/10/18 06:03:37;;;;;;;90.25;19.75;;;;;;;11.25;100.00;102565.00;5111032;28;20496;-81
2022/10/18 06:06:09;;;;;;;95.95;20.42;;;;;;;11.24;100.00;102573.75;5097517;28;20036;-82
2022/10/18 06:08:39;;;;;;;115.38;22.65;;;;;;;11.22;100.00;102568.41;5082292;27;20047;-81
2022/10/18 06:11:14;;;;;;;125.50;20.97;;;;;;;11.22;100.00;102578.09;5087234;27;20050;-81
2022/10/18 06:13:45;;;;;;;115.80;20.45;;;;;;;11.19;100.00;102571.00;5095486;28;20047;-81
2022/10/18 06:16:17;;;;;;;131.32;22.17;;;;;;;11.17;100.00;102579.69;5078707;27;20263;-81
2022/10/18 06:18:50;;;;;;;148.07;21.35;;;;;;;11.15;100.00;102579.66;5086141;27;20527;-81
2022/10/18 06:21:19;;;;;;;111.93;20.35;;;;;;;11.14;100.00;102569.97;5098503;27;20035;-82
2022/10/18 06:23:50;;;;;;;61.25;16.65;;;;;;;11.12;100.00;102574.31;5097906;27;20039;-81
2022/10/18 06:26:19;;;;;;;97.38;19.30;;;;;;;11.11;100.00;102575.16;5100684;27;20074;-82
2022/10/18 06:28:49;;;;;;;182.40;24.37;;;;;;;11.10;100.00;102579.53;5087936;27;20043;-82
2022/10/18 06:31:17;;;;;;;176.90;22.73;;;;;;;11.08;100.00;102575.06;5062255;27;20051;-82
2022/10/18 06:33:46;;;;;;;232.88;26.13;;;;;;;11.05;100.00;102569.69;5110466;27;20043;-81
2022/10/18 06:36:23;;;;;;;257.80;25.48;;;;;;;11.05;100.00;102594.31;5123148;27;20047;-82
2022/10/18 06:38:51;;;;;;;179.43;22.33;;;;;;;11.03;100.00;102590.75;5109814;27;20039;-82
2022/10/18 06:41:20;;;;;;;256.33;26.73;;;;;;;11.01;100.00;102596.84;5087012;27;20534;-82
2022/10/18 06:43:50;;;;;;;162.82;23.75;;;;;;;10.99;100.00;102602.06;5086750;27;20047;-81
2022/10/18 06:46:19;;;;;;;213.87;25.33;;;;;;;10.98;100.00;102612.56;5059976;27;20660;-82
2022/10/18 06:48:47;;;;;;;146.02;23.48;;;;;;;10.99;100.00;102631.09;5067227;27;20304;-81
2022/10/18 06:51:17;;;;;;;137.25;20.80;;;;;;;10.98;100.00;102616.09;5084516;28;20600;-82
2022/10/18 06:53:45;;;;;;;140.60;22.57;;;;;;;10.95;100.00;102612.50;5108508;27;20047;-82
2022/10/18 06:56:27;;;;;;;169.80;23.75;;;;;;;10.92;100.00;102629.09;5081701;28;20044;-82
2022/10/18 06:58:55;;;;;;;463.40;68.97;;;;;;;10.92;100.00;102640.53;5069585;27;20279;-82
2022/10/18 07:01:23;;;;;;;144.00;24.38;;;;;;;10.96;100.00;102643.28;5095978;27;20047;-81
2022/10/18 07:03:53;;;;;;;55.80;16.98;;;;;;;10.98;100.00;102625.75;5049129;27;20254;-81
2022/10/18 07:06:23;;;;;;;77.78;19.75;;;;;;;10.99;100.00;102623.19;5076118;28;20044;-82
2022/10/18 07:08:52;;;;;;;51.03;17.15;;;;;;;11.01;100.00;102647.84;5096240;27;20048;-81
2022/10/18 07:11:24;;;;;;;87.40;18.67;;;;;;;11.04;100.00;102641.75;5105115;27;20051;-81
2022/10/18 07:13:54;;;;;;;60.60;16.58;;;;;;;11.04;100.00;102639.13;5091954;28;20469;-81
2022/10/18 07:16:22;;;;;;;66.57;15.85;;;;;;;11.04;100.00;102647.03;5092225;27;20039;-82
2022/10/18 07:18:51;;;;;;;71.97;17.00;;;;;;;11.04;100.00;102654.94;5095981;27;20051;-81
2022/10/18 07:21:22;;;;;;;114.47;22.27;;;;;;;11.04;100.00;102652.31;5100355;27;20048;-81
2022/10/18 07:23:52;;;;;;;70.22;15.55;;;;;;;11.05;100.00;102631.25;5116310;27;20059;-81
2022/10/18 07:26:26;;;;;;;54.67;14.07;;;;;;;11.09;100.00;102656.88;5102910;27;20602;-81
2022/10/18 07:29:08;;;;;;;119.00;19.92;;;;;;;11.12;100.00;102667.53;5107370;27;20039;-81
2022/10/18 07:31:37;;;;;;;112.53;19.75;;;;;;;11.16;100.00;102651.81;5112269;27;20152;-81
2022/10/18 07:34:09;;;;;;;85.40;18.17;;;;;;;11.19;100.00;102644.88;5093817;27;20384;-81
2022/10/18 07:36:37;;;;;;;49.47;14.25;;;;;;;11.22;100.00;102659.91;5122298;27;20061;-81
2022/10/18 07:39:06;;;;;;;39.60;12.68;;;;;;;11.25;100.00;102678.47;5112160;27;20043;-81
2022/10/18 07:41:35;;;;;;;31.30;13.25;;;;;;;11.28;100.00;102666.22;5104894;28;20164;-81
2022/10/18 07:44:04;;;;;;;51.00;14.68;;;;;;;11.35;100.00;102662.03;5077689;27;20055;-81
2022/10/18 07:46:32;;;;;;;54.38;14.38;;;;;;;11.40;100.00;102680.63;5070097;28;20139;-81
2022/10/18 07:49:00;;;;;;;41.55;15.25;;;;;;;11.44;100.00;102685.19;5039778;28;20040;-81
2022/10/18 07:51:33;;;;;;;39.63;12.82;;;;;;;11.48;100.00;102673.84;5082959;28;20619;-81
2022/10/18 07:54:07;;;;;;;20.00;11.43;;;;;;;11.47;100.00;102690.53;5087744;28;20508;-81
2022/10/18 07:56:35;;;;;;;32.67;11.43;;;;;;;11.46;100.00;102686.13;5093870;28;20321;-81
2022/10/18 07:59:09;;;;;;;24.15;12.52;;;;;;;11.47;100.00;102687.91;5048804;28;20237;-81
2022/10/18 08:01:37;;;;;;;18.25;10.88;;;;;;;11.51;100.00;102681.84;5064141;28;20029;-81
2022/10/18 08:04:05;;;;;;;20.23;11.18;;;;;;;11.55;100.00;102683.75;5049013;28;20056;-81
2022/10/18 08:06:37;;;;;;;15.93;9.38;;;;;;;11.58;100.00;102689.09;5084900;28;20263;-81
2022/10/18 08:09:06;;;;;;;19.63;9.63;;;;;;;11.63;100.00;102700.69;5102417;28;20043;-81
2022/10/18 08:11:34;;;;;;;16.23;9.73;;;;;;;11.66;100.00;102687.59;5055107;28;20044;-81
2022/10/18 08:14:02;;;;;;;14.43;9.13;;;;;;;11.78;100.00;102700.22;5087072;28;20477;-81
2022/10/18 08:16:37;;;;;;;15.68;9.35;;;;;;;11.92;100.00;102711.19;5078563;27;20146;-81
2022/10/18 08:19:05;;;;;;;18.65;7.75;;;;;;;12.10;100.00;102684.41;5053630;27;20046;-81
2022/10/18 08:21:33;;;;;;;10.60;7.55;;;;;;;12.29;100.00;102688.41;5058775;28;20412;-81
2022/10/18 08:24:03;;;;;;;13.43;6.70;;;;;;;12.48;100.00;102698.56;5088234;28;20047;-81
2022/10/18 08:26:31;;;;;;;11.98;7.13;;;;;;;12.65;100.00;102695.47;5059220;28;20040;-81
2022/10/18 08:29:00;;;;;;;9.07;6.78;;;;;;;12.91;100.00;102703.09;5106571;28;20047;-82
2022/10/18 08:31:49;;;;;;;7.80;6.43;;;;;;;13.18;100.00;102697.56;5090245;27;20035;-81
2022/10/18 08:34:18;;;;;;;13.33;6.57;;;;;;;13.42;100.00;102682.22;5105673;28;20039;-82
2022/10/18 08:36:47;;;;;;;14.70;5.95;;;;;;;13.61;100.00;102699.38;5038904;28;20031;-81
2022/10/18 08:39:17;;;;;;;12.45;5.70;;;;;;;13.81;100.00;102704.19;5103533;28;20519;-82
2022/10/18 08:42:19;;;;;;;10.30;5.93;;;;;;;14.01;100.00;102715.16;5072756;28;20489;-81
2022/10/18 08:44:51;;;;;;;13.43;6.55;;;;;;;14.21;100.00;102704.91;5097568;28;20051;-81
2022/10/18 08:47:38;;;;;;;12.23;5.50;;;;;;;14.37;100.00;102706.97;5086588;28;20043;-81
2022/10/18 08:50:13;;;;;;;13.50;5.55;;;;;;;14.48;100.00;102719.50;5085152;28;20036;-82
2022/10/18 08:52:53;;;;;;;11.50;5.38;;;;;;;14.59;100.00;102717.97;5034908;28;20044;-80
2022/10/18 08:55:27;;;;;;;;;;;;;;;14.66;100.00;102714.53;5100387;28;20471;-81
2022/10/18 08:57:57;;;;;;;8.88;4.38;;;;;;;14.75;100.00;102711.16;5086698;28;19920;-81
2022/10/18 09:00:33;;;;;;;8.35;3.70;;;;;;;14.80;100.00;102707.72;5078474;28;20047;-81
2022/10/18 09:03:26;;;;;;;12.00;3.97;;;;;;;14.81;100.00;102711.25;5054654;28;20040;-81
2022/10/18 09:06:08;;;;;;;13.35;3.53;;;;;;;14.75;100.00;102706.72;5091753;28;20040;-82
2022/10/18 09:08:59;;;;;;;9.88;3.33;;;;;;;14.69;100.00;102705.72;5049615;28;20740;-81
2022/10/18 09:11:39;;;;;;;10.82;2.60;;;;;;;14.59;100.00;102708.25;5099922;28;20223;-81
2022/10/18 09:14:25;;;;;;;10.88;2.90;;;;;;;14.55;100.00;102721.41;5104769;28;20040;-81
2022/10/18 09:17:33;;;;;;;8.82;2.58;;;;;;;14.42;100.00;102717.66;5085279;28;20039;-80
2022/10/18 09:20:23;;;;;;;10.35;2.58;;;;;;;14.38;100.00;102723.78;5092921;28;20392;-81
2022/10/18 09:23:26;;;;;;;8.45;2.72;;;;;;;14.33;100.00;102710.44;5078936;28;20048;-81
2022/10/18 09:26:07;;;;;;;13.98;2.60;;;;;;;14.32;100.00;102711.28;5095881;28;20047;-81
2022/10/18 09:28:44;;;;;;;11.93;2.97;;;;;;;14.32;100.00;102721.91;5078720;28;20047;-81
2022/10/18 09:31:34;;;;;;;9.77;2.35;;;;;;;14.31;100.00;102724.53;5087225;28;20040;-82
2022/10/18 09:34:05;;;;;;;9.35;2.20;;;;;;;14.27;100.00;102723.56;5072071;28;20036;-81
2022/10/18 09:36:37;;;;;;;8.95;2.10;;;;;;;14.29;100.00;102716.56;5086139;28;20075;-82
2022/10/18 09:39:17;;;;;;;19.95;2.45;;;;;;;14.30;100.00;102723.63;5048110;28;20401;-82
2022/10/18 09:41:56;;;;;;;11.98;2.60;;;;;;;14.29;100.00;102731.56;5088821;28;20050;-82
2022/10/18 09:44:30;;;;;;;13.52;2.00;;;;;;;14.32;100.00;102736.94;5097102;27;20043;-80
2022/10/18 09:47:06;;;;;;;12.75;2.30;;;;;;;14.34;100.00;102732.53;5111193;27;20055;-80
2022/10/18 09:49:43;;;;;;;10.88;2.15;;;;;;;14.38;100.00;102743.22;5073500;28;20117;-81
2022/10/18 09:52:18;;;;;;;10.80;2.70;;;;;;;14.39;100.00;102734.41;5117159;27;20511;-82
2022/10/18 09:54:54;;;;;;;14.05;2.65;;;;;;;14.43;100.00;102752.16;5092560;27;20043;-80
2022/10/18 09:57:46;;;;;;;15.50;3.15;;;;;;;14.48;100.00;102757.56;5076461;27;20036;-81
2022/10/18 10:00:24;;;;;;;12.93;2.15;;;;;;;14.54;100.00;102751.47;5098510;27;20036;-81
2022/10/18 10:02:53;;;;;;;9.93;2.40;;;;;;;14.57;100.00;102751.53;5099011;28;20504;-81
2022/10/18 10:05:21;;;;;;;11.70;2.58;;;;;;;14.59;100.00;102757.75;5086363;27;20051;-81
2022/10/18 10:07:58;;;;;;;14.48;2.25;;;;;;;14.62;100.00;102750.75;5119754;27;20070;-81
2022/10/18 10:10:28;;;;;;;8.15;2.08;;;;;;;14.67;100.00;102755.22;5064606;28;20416;-81
2022/10/18 10:13:03;;;;;;;14.25;2.40;;;;;;;14.75;100.00;102759.81;5089831;27;20519;-81
2022/10/18 10:15:32;;;;;;;11.60;2.42;;;;;;;14.77;100.00;102755.41;5099149;27;20267;-82
2022/10/18 10:18:21;;;;;;;16.02;2.45;;;;;;;14.86;100.00;102756.41;5065904;27;20063;-82
2022/10/18 10:20:54;;;;;;;14.00;2.55;;;;;;;14.92;100.00;102764.50;5096910;27;20043;-82
2022/10/18 10:23:29;;;;;;;9.65;2.08;;;;;;;14.93;100.00;102769.84;5127587;27;20042;-82
2022/10/18 10:26:01;;;;;;;11.85;2.17;;;;;;;14.97;100.00;102770.75;5076495;27;20044;-82
2022/10/18 10:28:35;;;;;;;15.93;2.42;;;;;;;15.06;100.00;102772.66;5073391;28;20237;-83
2022/10/18 10:31:33;;;;;;;10.15;2.35;;;;;;;15.12;100.00;102768.38;5094790;27;20046;-81
2022/10/18 10:34:08;;;;;;;11.70;2.60;;;;;;;15.13;100.00;102767.47;5109630;27;20396;-80
2022/10/18 10:36:46;;;;;;;10.45;2.08;;;;;;;15.12;100.00;102779.00;5105225;28;20557;-80
2022/10/18 10:39:18;;;;;;;8.27;2.22;;;;;;;15.14;100.00;102776.31;5110473;27;20392;-81
2022/10/18 10:41:57;;;;;;;9.68;2.10;;;;;;;15.19;100.00;102777.28;5049746;27;20047;-81
2022/10/18 10:44:29;;;;;;;12.50;2.67;;;;;;;15.19;100.00;102772.88;5078606;28;20051;-81
2022/10/18 10:46:58;;;;;;;11.50;2.30;;;;;;;15.16;100.00;102782.56;5094865;27;20047;-80
2022/10/18 10:49:34;;;;;;;7.38;2.17;;;;;;;15.15;100.00;102786.97;5120066;27;20035;-80
2022/10/18 10:52:20;;;;;;;8.45;2.67;;;;;;;15.11;100.00;102789.56;5106378;28;20043;-81
2022/10/18 10:54:57;;;;;;;9.02;2.00;;;;;;;15.03;100.00;102786.81;5087972;27;20047;-80
2022/10/18 10:57:47;;;;;;;9.63;2.08;;;;;;;14.91;100.00;102787.47;5070330;27;20519;-80
2022/10/18 11:00:34;;;;;;;9.68;2.00;;;;;;;14.89;100.00;102788.34;5119097;27;20039;-81
2022/10/18 11:03:14;;;;;;;13.18;2.53;;;;;;;14.94;100.00;102791.97;5132807;27;20058;-80
2022/10/18 11:05:59;;;;;;;21.88;2.65;;;;;;;15.02;100.00;102782.34;5103080;27;20051;-79
2022/10/18 11:08:35;;;;;;;10.65;2.65;;;;;;;15.17;100.00;102785.22;5087081;27;20043;-80
2022/10/18 11:11:12;;;;;;;15.45;2.20;;;;;;;15.34;100.00;102772.19;5108629;27;20042;-81
2022/10/18 11:13:55;;;;;;;18.13;2.78;;;;;;;15.47;100.00;102778.59;5116237;27;20074;-80
2022/10/18 11:17:20;;;;;;;12.45;2.15;;;;;;;15.42;100.00;102790.00;5107283;27;20122;-80
2022/10/18 11:20:08;;;;;;;11.48;2.05;;;;;;;15.35;100.00;102783.75;5092405;28;20036;-80
2022/10/18 11:23:09;;;;;;;13.65;2.28;;;;;;;15.39;100.00;102786.44;5109585;27;20039;-82
2022/10/18 11:25:56;;;;;;;;;;;;;;;15.47;100.00;102789.22;5109138;27;20047;-82
2022/10/18 11:28:33;;;;;;;9.63;2.13;;;;;;;15.48;100.00;102784.78;5086808;28;19920;-79
2022/10/18 11:31:01;;;;;;;10.52;2.10;;;;;;;15.42;100.00;102785.59;5091798;27;21086;-80